sensor_id;sensor_type;location;lat;lon;timestamp;pressure;altitude;pressure_sealevel;temperature;humidity
55032;BME280;40928;51.076;7.950;2024-02-23T00:02:18;94382.53;;;4.18;99.07
55032;BME280;40928;51.076;7.950;2024-02-23T00:04:44;94385.72;;;4.35;98.42
55032;BME280;40928;51.076;7.950;2024-02-23T00:07:10;94383.31;;;4.18;98.29
55032;BME280;40928;51.076;7.950;2024-02-23T00:09:36;94396.28;;;4.20;97.95
55032;BME280;40928;51.076;7.950;2024-02-23T00:12:03;94401.03;;;4.18;98.30
55032;BME280;40928;51.076;7.950;2024-02-23T00:14:29;94405.25;;;4.19;97.48
55032;BME280;40928;51.076;7.950;2024-02-23T00:16:56;94411.03;;;4.21;97.77
55032;BME280;40928;51.076;7.950;2024-02-23T00:19:22;94430.59;;;4.15;97.57
55032;BME280;40928;51.076;7.950;2024-02-23T00:21:49;94424.00;;;4.17;98.26
55032;BME280;40928;51.076;7.950;2024-02-23T00:24:18;94430.88;;;4.18;98.20
55032;BME280;40928;51.076;7.950;2024-02-23T00:26:46;94443.56;;;4.21;98.38
55032;BME280;40928;51.076;7.950;2024-02-23T00:29:12;94436.91;;;4.08;98.88
55032;BME280;40928;51.076;7.950;2024-02-23T00:31:38;94448.81;;;4.06;99.16
55032;BME280;40928;51.076;7.950;2024-02-23T00:34:06;94458.56;;;4.05;100.00
55032;BME280;40928;51.076;7.950;2024-02-23T00:36:38;94460.16;;;4.01;98.42
55032;BME280;40928;51.076;7.950;2024-02-23T00:39:04;94473.34;;;3.96;98.81
55032;BME280;40928;51.076;7.950;2024-02-23T00:41:29;94478.88;;;3.94;99.33
55032;BME280;40928;51.076;7.950;2024-02-23T00:43:55;94484.13;;;3.89;100.00
55032;BME280;40928;51.076;7.950;2024-02-23T00:46:21;94487.88;;;4.04;99.03
55032;BME280;40928;51.076;7.950;2024-02-23T00:48:46;94499.78;;;4.01;99.05
55032;BME280;40928;51.076;7.950;2024-02-23T00:51:12;94494.69;;;3.84;98.97
55032;BME280;40928;51.076;7.950;2024-02-23T00:53:37;94505.53;;;3.88;100.00
55032;BME280;40928;51.076;7.950;2024-02-23T00:56:03;94503.41;;;3.90;100.00
55032;BME280;40928;51.076;7.950;2024-02-23T00:58:29;94510.81;;;3.88;100.00
55032;BME280;40928;51.076;7.950;2024-02-23T01:00:55;94512.91;;;3.91;98.42
55032;BME280;40928;51.076;7.950;2024-02-23T01:03:20;94504.19;;;3.80;99.69
55032;BME280;40928;51.076;7.950;2024-02-23T01:05:46;94509.69;;;3.73;99.66
55032;BME280;40928;51.076;7.950;2024-02-23T01:08:11;94524.50;;;3.79;99.30
55032;BME280;40928;51.076;7.950;2024-02-23T01:10:37;94518.13;;;3.75;100.00
55032;BME280;40928;51.076;7.950;2024-02-23T01:13:02;94527.09;;;3.69;100.00
55032;BME280;40928;51.076;7.950;2024-02-23T01:15:28;94523.72;;;3.79;100.00
55032;BME280;40928;51.076;7.950;2024-02-23T01:17:53;94534.94;;;3.59;100.00
55032;BME280;40928;51.076;7.950;2024-02-23T01:20:19;94553.41;;;3.54;100.00
55032;BME280;40928;51.076;7.950;2024-02-23T01:22:44;94538.03;;;3.40;100.00
55032;BME280;40928;51.076;7.950;2024-02-23T01:25:10;94564.31;;;3.30;100.00
55032;BME280;40928;51.076;7.950;2024-02-23T01:27:35;94557.38;;;3.18;100.00
55032;BME280;40928;51.076;7.950;2024-02-23T01:30:01;94572.22;;;3.25;100.00
55032;BME280;40928;51.076;7.950;2024-02-23T01:32:26;94573.25;;;3.24;100.00
55032;BME280;40928;51.076;7.950;2024-02-23T01:34:52;94570.03;;;3.16;100.00
55032;BME280;40928;51.076;7.950;2024-02-23T01:37:17;94582.44;;;3.16;100.00
55032;BME280;40928;51.076;7.950;2024-02-23T01:39:43;94580.56;;;3.16;100.00
55032;BME280;40928;51.076;7.950;2024-02-23T01:42:08;94579.75;;;3.11;100.00
55032;BME280;40928;51.076;7.950;2024-02-23T01:44:34;94589.03;;;3.18;100.00
55032;BME280;40928;51.076;7.950;2024-02-23T01:47:00;94592.72;;;3.17;100.00
55032;BME280;40928;51.076;7.950;2024-02-23T01:49:25;94597.22;;;3.17;100.00
55032;BME280;40928;51.076;7.950;2024-02-23T01:51:57;94605.06;;;3.12;100.00
55032;BME280;40928;51.076;7.950;2024-02-23T01:54:24;94611.66;;;3.09;100.00
55032;BME280;40928;51.076;7.950;2024-02-23T01:56:50;94601.81;;;3.04;100.00
55032;BME280;40928;51.076;7.950;2024-02-23T01:59:16;94614.50;;;3.02;100.00
55032;BME280;40928;51.076;7.950;2024-02-23T02:01:45;94628.50;;;3.08;100.00
55032;BME280;40928;51.076;7.950;2024-02-23T02:04:11;94625.91;;;3.13;100.00
55032;BME280;40928;51.076;7.950;2024-02-23T02:06:36;94624.56;;;3.11;100.00
55032;BME280;40928;51.076;7.950;2024-02-23T02:09:02;94617.69;;;3.10;100.00
55032;BME280;40928;51.076;7.950;2024-02-23T02:11:28;94623.88;;;2.93;100.00
55032;BME280;40928;51.076;7.950;2024-02-23T02:13:54;94625.25;;;2.96;100.00
55032;BME280;40928;51.076;7.950;2024-02-23T02:16:20;94642.13;;;3.00;100.00
55032;BME280;40928;51.076;7.950;2024-02-23T02:18:45;94656.91;;;3.01;100.00
55032;BME280;40928;51.076;7.950;2024-02-23T02:21:11;94646.91;;;3.03;100.00
55032;BME280;40928;51.076;7.950;2024-02-23T02:23:37;94651.91;;;2.99;100.00
55032;BME280;40928;51.076;7.950;2024-02-23T02:26:03;94651.34;;;2.97;100.00
55032;BME280;40928;51.076;7.950;2024-02-23T02:28:28;94665.28;;;2.93;100.00
55032;BME280;40928;51.076;7.950;2024-02-23T02:30:54;94657.41;;;2.98;100.00
55032;BME280;40928;51.076;7.950;2024-02-23T02:33:20;94662.59;;;2.87;100.00
55032;BME280;40928;51.076;7.950;2024-02-23T02:35:46;94662.28;;;2.84;100.00
55032;BME280;40928;51.076;7.950;2024-02-23T02:38:12;94678.03;;;2.79;100.00
55032;BME280;40928;51.076;7.950;2024-02-23T02:40:37;94690.09;;;2.74;100.00
55032;BME280;40928;51.076;7.950;2024-02-23T02:43:03;94685.47;;;2.82;100.00
55032;BME280;40928;51.076;7.950;2024-02-23T02:45:29;94686.13;;;2.72;100.00
55032;BME280;40928;51.076;7.950;2024-02-23T02:47:55;94693.75;;;2.68;100.00
55032;BME280;40928;51.076;7.950;2024-02-23T02:50:21;94694.31;;;2.70;100.00
55032;BME280;40928;51.076;7.950;2024-02-23T02:52:47;94689.63;;;2.78;100.00
55032;BME280;40928;51.076;7.950;2024-02-23T02:55:12;94694.31;;;2.70;100.00
55032;BME280;40928;51.076;7.950;2024-02-23T02:57:38;94693.50;;;2.70;100.00
55032;BME280;40928;51.076;7.950;2024-02-23T03:00:04;94695.56;;;2.68;100.00
55032;BME280;40928;51.076;7.950;2024-02-23T03:02:31;94697.16;;;2.69;100.00
55032;BME280;40928;51.076;7.950;2024-02-23T03:04:56;94691.22;;;2.79;100.00
55032;BME280;40928;51.076;7.950;2024-02-23T03:07:22;94694.31;;;2.70;100.00
55032;BME280;40928;51.076;7.950;2024-02-23T03:09:48;94700.34;;;2.71;100.00
55032;BME280;40928;51.076;7.950;2024-02-23T03:12:14;94695.56;;;2.68;100.00
55032;BME280;40928;51.076;7.950;2024-02-23T03:14:40;94696.13;;;2.70;100.00
55032;BME280;40928;51.076;7.950;2024-02-23T03:17:07;94692.38;;;2.66;100.00
55032;BME280;40928;51.076;7.950;2024-02-23T03:19:32;94699.56;;;2.70;100.00
55032;BME280;40928;51.076;7.950;2024-02-23T03:21:58;94710.13;;;2.70;100.00
55032;BME280;40928;51.076;7.950;2024-02-23T03:24:24;94704.53;;;2.67;100.00
55032;BME280;40928;51.076;7.950;2024-02-23T03:26:49;94706.94;;;2.68;100.00
55032;BME280;40928;51.076;7.950;2024-02-23T03:29:15;94704.00;;;2.65;100.00
55032;BME280;40928;51.076;7.950;2024-02-23T03:31:41;94708.25;;;2.71;100.00
55032;BME280;40928;51.076;7.950;2024-02-23T03:34:06;94715.03;;;2.62;100.00
55032;BME280;40928;51.076;7.950;2024-02-23T03:36:33;94721.22;;;2.72;100.00
55032;BME280;40928;51.076;7.950;2024-02-23T03:39:00;94724.56;;;2.68;100.00
55032;BME280;40928;51.076;7.950;2024-02-23T03:41:27;94721.56;;;2.59;100.00
55032;BME280;40928;51.076;7.950;2024-02-23T03:43:52;94723.78;;;2.67;100.00
55032;BME280;40928;51.076;7.950;2024-02-23T03:46:18;94721.25;;;2.55;100.00
55032;BME280;40928;51.076;7.950;2024-02-23T03:48:45;94729.97;;;2.56;100.00
55032;BME280;40928;51.076;7.950;2024-02-23T03:51:10;94723.34;;;2.53;100.00
55032;BME280;40928;51.076;7.950;2024-02-23T03:53:36;94723.28;;;2.48;100.00
55032;BME280;40928;51.076;7.950;2024-02-23T03:56:02;94735.94;;;2.51;100.00
55032;BME280;40928;51.076;7.950;2024-02-23T03:58:28;94725.47;;;2.56;100.00
55032;BME280;40928;51.076;7.950;2024-02-23T04:00:54;94729.53;;;2.42;100.00
55032;BME280;40928;51.076;7.950;2024-02-23T04:03:19;94724.56;;;2.46;100.00
55032;BME280;40928;51.076;7.950;2024-02-23T04:05:45;94733.31;;;2.51;100.00
55032;BME280;40928;51.076;7.950;2024-02-23T04:08:10;94723.69;;;2.40;100.00
55032;BME280;40928;51.076;7.950;2024-02-23T04:10:36;94726.03;;;2.36;100.00
55032;BME280;40928;51.076;7.950;2024-02-23T04:13:01;94723.63;;;2.35;100.00
55032;BME280;40928;51.076;7.950;2024-02-23T04:15:27;94728.41;;;2.38;100.00
55032;BME280;40928;51.076;7.950;2024-02-23T04:17:52;94728.19;;;2.39;100.00
55032;BME280;40928;51.076;7.950;2024-02-23T04:20:18;94738.34;;;2.31;100.00
55032;BME280;40928;51.076;7.950;2024-02-23T04:22:44;94734.03;;;2.24;100.00
55032;BME280;40928;51.076;7.950;2024-02-23T04:25:09;94739.28;;;2.24;100.00
55032;BME280;40928;51.076;7.950;2024-02-23T04:27:35;94734.28;;;2.23;100.00
55032;BME280;40928;51.076;7.950;2024-02-23T04:30:01;94724.66;;;2.34;99.74
55032;BME280;40928;51.076;7.950;2024-02-23T04:32:27;94735.06;;;2.23;99.79
55032;BME280;40928;51.076;7.950;2024-02-23T04:34:52;94733.63;;;2.16;100.00
55032;BME280;40928;51.076;7.950;2024-02-23T04:37:19;94738.03;;;2.10;100.00
55032;BME280;40928;51.076;7.950;2024-02-23T04:39:45;94745.84;;;2.05;100.00
55032;BME280;40928;51.076;7.950;2024-02-23T04:42:10;94743.94;;;2.00;100.00
55032;BME280;40928;51.076;7.950;2024-02-23T04:44:36;94745.72;;;1.94;100.00
55032;BME280;40928;51.076;7.950;2024-02-23T04:47:02;94746.66;;;2.05;100.00
55032;BME280;40928;51.076;7.950;2024-02-23T04:49:27;94759.00;;;2.05;99.98
55032;BME280;40928;51.076;7.950;2024-02-23T04:51:54;94755.75;;;1.97;100.00
55032;BME280;40928;51.076;7.950;2024-02-23T04:54:19;94755.03;;;2.02;100.00
55032;BME280;40928;51.076;7.950;2024-02-23T04:56:46;94760.94;;;1.92;100.00
55032;BME280;40928;51.076;7.950;2024-02-23T04:59:12;94748.81;;;1.91;100.00
55032;BME280;40928;51.076;7.950;2024-02-23T05:01:38;94758.16;;;1.99;99.74
55032;BME280;40928;51.076;7.950;2024-02-23T05:04:04;94761.50;;;1.94;100.00
55032;BME280;40928;51.076;7.950;2024-02-23T05:06:30;94762.84;;;1.97;99.88
55032;BME280;40928;51.076;7.950;2024-02-23T05:08:55;94771.63;;;2.03;98.69
55032;BME280;40928;51.076;7.950;2024-02-23T05:11:21;94770.59;;;2.04;99.07
55032;BME280;40928;51.076;7.950;2024-02-23T05:13:47;94785.66;;;1.91;100.00
55032;BME280;40928;51.076;7.950;2024-02-23T05:16:16;94772.03;;;1.94;99.75
55032;BME280;40928;51.076;7.950;2024-02-23T05:18:41;94773.47;;;1.85;100.00
55032;BME280;40928;51.076;7.950;2024-02-23T05:21:07;94770.91;;;1.90;100.00
55032;BME280;40928;51.076;7.950;2024-02-23T05:23:33;94768.38;;;1.95;100.00
55032;BME280;40928;51.076;7.950;2024-02-23T05:25:58;94783.75;;;1.87;100.00
55032;BME280;40928;51.076;7.950;2024-02-23T05:28:24;94768.84;;;1.92;100.00
55032;BME280;40928;51.076;7.950;2024-02-23T05:30:51;94767.34;;;1.96;99.00
55032;BME280;40928;51.076;7.950;2024-02-23T05:33:16;94770.13;;;1.90;99.86
55032;BME280;40928;51.076;7.950;2024-02-23T05:35:42;94767.03;;;1.93;99.88
55032;BME280;40928;51.076;7.950;2024-02-23T05:38:07;94773.63;;;1.95;99.49
55032;BME280;40928;51.076;7.950;2024-02-23T05:40:32;94770.53;;;1.98;99.25
55032;BME280;40928;51.076;7.950;2024-02-23T05:42:58;94771.00;;;1.95;99.40
55032;BME280;40928;51.076;7.950;2024-02-23T05:45:24;94775.78;;;1.98;100.00
55032;BME280;40928;51.076;7.950;2024-02-23T05:47:50;94776.81;;;1.97;99.26
55032;BME280;40928;51.076;7.950;2024-02-23T05:50:15;94778.56;;;2.09;97.68
55032;BME280;40928;51.076;7.950;2024-02-23T05:52:41;94777.06;;;2.13;97.59
55032;BME280;40928;51.076;7.950;2024-02-23T05:55:07;94782.72;;;2.05;98.05
55032;BME280;40928;51.076;7.950;2024-02-23T05:57:33;94792.75;;;2.08;97.91
55032;BME280;40928;51.076;7.950;2024-02-23T05:59:59;94786.31;;;1.98;97.93
55032;BME280;40928;51.076;7.950;2024-02-23T06:02:24;94789.44;;;1.95;98.81
55032;BME280;40928;51.076;7.950;2024-02-23T06:04:50;94783.91;;;1.97;99.07
55032;BME280;40928;51.076;7.950;2024-02-23T06:07:16;94781.84;;;1.99;97.98
55032;BME280;40928;51.076;7.950;2024-02-23T06:09:42;94777.72;;;1.86;99.17
55032;BME280;40928;51.076;7.950;2024-02-23T06:12:08;94792.69;;;1.86;99.91
55032;BME280;40928;51.076;7.950;2024-02-23T06:14:34;94793.00;;;1.89;99.26
55032;BME280;40928;51.076;7.950;2024-02-23T06:17:00;94782.47;;;1.89;99.95
55032;BME280;40928;51.076;7.950;2024-02-23T06:19:26;94783.19;;;1.85;99.98
55032;BME280;40928;51.076;7.950;2024-02-23T06:21:51;94776.19;;;1.90;99.29
55032;BME280;40928;51.076;7.950;2024-02-23T06:24:17;94777.94;;;1.85;99.34
55032;BME280;40928;51.076;7.950;2024-02-23T06:26:43;94771.69;;;1.74;100.00
55032;BME280;40928;51.076;7.950;2024-02-23T06:29:08;94762.56;;;1.76;99.84
55032;BME280;40928;51.076;7.950;2024-02-23T06:31:39;94760.63;;;1.72;100.00
55032;BME280;40928;51.076;7.950;2024-02-23T06:34:06;94761.19;;;1.74;100.00
55032;BME280;40928;51.076;7.950;2024-02-23T06:36:32;94773.28;;;1.75;100.00
55032;BME280;40928;51.076;7.950;2024-02-23T06:38:57;94774.28;;;1.69;100.00
55032;BME280;40928;51.076;7.950;2024-02-23T06:41:23;94768.28;;;1.73;100.00
55032;BME280;40928;51.076;7.950;2024-02-23T06:43:48;94770.50;;;1.64;100.00
55032;BME280;40928;51.076;7.950;2024-02-23T06:46:14;94770.03;;;1.67;100.00
55032;BME280;40928;51.076;7.950;2024-02-23T06:48:39;94774.91;;;1.76;100.00
55032;BME280;40928;51.076;7.950;2024-02-23T06:51:05;94769.16;;;1.62;100.00
55032;BME280;40928;51.076;7.950;2024-02-23T06:53:35;94770.41;;;1.59;100.00
55032;BME280;40928;51.076;7.950;2024-02-23T06:56:01;94773.75;;;1.55;100.00
55032;BME280;40928;51.076;7.950;2024-02-23T06:58:27;94773.28;;;1.58;100.00
55032;BME280;40928;51.076;7.950;2024-02-23T07:00:53;94764.59;;;1.57;100.00
55032;BME280;40928;51.076;7.950;2024-02-23T07:03:18;94758.78;;;1.55;100.00
55032;BME280;40928;51.076;7.950;2024-02-23T07:05:44;94765.16;;;1.59;100.00
55032;BME280;40928;51.076;7.950;2024-02-23T07:08:11;94762.31;;;1.61;100.00
55032;BME280;40928;51.076;7.950;2024-02-23T07:10:36;94778.41;;;1.64;100.00
55032;BME280;40928;51.076;7.950;2024-02-23T07:13:02;94781.34;;;1.68;100.00
55032;BME280;40928;51.076;7.950;2024-02-23T07:15:27;94782.22;;;1.74;100.00
55032;BME280;40928;51.076;7.950;2024-02-23T07:17:53;94786.81;;;1.78;100.00
55032;BME280;40928;51.076;7.950;2024-02-23T07:20:18;94795.31;;;1.86;100.00
55032;BME280;40928;51.076;7.950;2024-02-23T07:22:45;94808.78;;;1.89;100.00
55032;BME280;40928;51.076;7.950;2024-02-23T07:25:20;94798.59;;;1.93;100.00
55032;BME280;40928;51.076;7.950;2024-02-23T07:27:49;94799.63;;;1.92;100.00
55032;BME280;40928;51.076;7.950;2024-02-23T07:30:15;94798.03;;;1.91;100.00
55032;BME280;40928;51.076;7.950;2024-02-23T07:32:42;94801.56;;;1.96;100.00
55032;BME280;40928;51.076;7.950;2024-02-23T07:35:08;94806.66;;;2.03;100.00
55032;BME280;40928;51.076;7.950;2024-02-23T07:37:33;94810.16;;;2.09;100.00
55032;BME280;40928;51.076;7.950;2024-02-23T07:39:59;94817.50;;;2.07;100.00
55032;BME280;40928;51.076;7.950;2024-02-23T07:42:24;94809.28;;;2.20;100.00
55032;BME280;40928;51.076;7.950;2024-02-23T07:44:50;94821.41;;;2.21;100.00
55032;BME280;40928;51.076;7.950;2024-02-23T07:47:15;94813.97;;;2.18;100.00
55032;BME280;40928;51.076;7.950;2024-02-23T07:49:41;94819.81;;;2.20;100.00
55032;BME280;40928;51.076;7.950;2024-02-23T07:52:06;94819.25;;;2.18;100.00
55032;BME280;40928;51.076;7.950;2024-02-23T07:54:32;94815.91;;;2.23;100.00
55032;BME280;40928;51.076;7.950;2024-02-23T07:56:58;94816.06;;;2.16;100.00
55032;BME280;40928;51.076;7.950;2024-02-23T07:59:24;94816.38;;;2.20;100.00
55032;BME280;40928;51.076;7.950;2024-02-23T08:01:50;94802.66;;;2.18;100.00
55032;BME280;40928;51.076;7.950;2024-02-23T08:04:15;94799.78;;;2.19;100.00
55032;BME280;40928;51.076;7.950;2024-02-23T08:06:41;94806.25;;;2.28;100.00
55032;BME280;40928;51.076;7.950;2024-02-23T08:09:08;94808.13;;;2.50;100.00
55032;BME280;40928;51.076;7.950;2024-02-23T08:11:34;94809.91;;;2.67;100.00
55032;BME280;40928;51.076;7.950;2024-02-23T08:13:59;94806.22;;;2.85;100.00
55032;BME280;40928;51.076;7.950;2024-02-23T08:16:25;94807.75;;;3.03;100.00
55032;BME280;40928;51.076;7.950;2024-02-23T08:18:50;94811.88;;;3.16;97.97
55032;BME280;40928;51.076;7.950;2024-02-23T08:21:16;94822.81;;;3.30;97.41
55032;BME280;40928;51.076;7.950;2024-02-23T08:23:41;94829.38;;;3.27;96.88
55032;BME280;40928;51.076;7.950;2024-02-23T08:26:06;94817.81;;;3.28;97.02
55032;BME280;40928;51.076;7.950;2024-02-23T08:28:32;94826.06;;;3.37;96.17
55032;BME280;40928;51.076;7.950;2024-02-23T08:30:58;94819.47;;;3.34;96.36
55032;BME280;40928;51.076;7.950;2024-02-23T08:33:23;94833.56;;;3.23;95.48
55032;BME280;40928;51.076;7.950;2024-02-23T08:35:49;94839.06;;;3.44;95.24
55032;BME280;40928;51.076;7.950;2024-02-23T08:38:14;94855.31;;;3.58;94.47
55032;BME280;40928;51.076;7.950;2024-02-23T08:40:40;94834.56;;;3.44;94.71
55032;BME280;40928;51.076;7.950;2024-02-23T08:43:05;94831.03;;;3.56;93.94
55032;BME280;40928;51.076;7.950;2024-02-23T08:45:31;94823.81;;;3.73;92.69
55032;BME280;40928;51.076;7.950;2024-02-23T08:47:56;94828.53;;;3.71;93.12
55032;BME280;40928;51.076;7.950;2024-02-23T08:50:22;94828.13;;;3.85;92.52
55032;BME280;40928;51.076;7.950;2024-02-23T08:52:47;94845.59;;;3.91;90.56
55032;BME280;40928;51.076;7.950;2024-02-23T08:55:13;94831.59;;;3.90;90.27
55032;BME280;40928;51.076;7.950;2024-02-23T08:57:38;94816.06;;;3.94;90.99
55032;BME280;40928;51.076;7.950;2024-02-23T09:00:05;94830.41;;;4.03;89.74
55032;BME280;40928;51.076;7.950;2024-02-23T09:02:31;94832.66;;;4.22;88.81
55032;BME280;40928;51.076;7.950;2024-02-23T09:04:58;94859.81;;;4.12;88.73
55032;BME280;40928;51.076;7.950;2024-02-23T09:07:23;94835.47;;;4.10;88.83
55032;BME280;40928;51.076;7.950;2024-02-23T09:09:49;94837.41;;;4.20;88.88
55032;BME280;40928;51.076;7.950;2024-02-23T09:12:15;94845.50;;;4.08;88.32
55032;BME280;40928;51.076;7.950;2024-02-23T09:14:45;94828.75;;;3.97;87.30
55032;BME280;40928;51.076;7.950;2024-02-23T09:17:11;94841.34;;;3.90;89.38
55032;BME280;40928;51.076;7.950;2024-02-23T09:19:38;94825.84;;;3.93;89.41
55032;BME280;40928;51.076;7.950;2024-02-23T09:22:03;94828.72;;;3.92;88.38
55032;BME280;40928;51.076;7.950;2024-02-23T09:24:29;94834.38;;;4.06;88.77
55032;BME280;40928;51.076;7.950;2024-02-23T09:26:55;94830.00;;;4.17;88.93
55032;BME280;40928;51.076;7.950;2024-02-23T09:29:20;94836.59;;;4.19;87.69
55032;BME280;40928;51.076;7.950;2024-02-23T09:31:47;94839.09;;;4.36;86.84
55032;BME280;40928;51.076;7.950;2024-02-23T09:34:13;94838.53;;;4.29;87.19
55032;BME280;40928;51.076;7.950;2024-02-23T09:36:38;94853.56;;;4.29;86.73
55032;BME280;40928;51.076;7.950;2024-02-23T09:39:04;94841.06;;;4.14;87.52
55032;BME280;40928;51.076;7.950;2024-02-23T09:41:32;94860.09;;;4.16;85.63
55032;BME280;40928;51.076;7.950;2024-02-23T09:44:01;94858.06;;;4.28;87.53
55032;BME280;40928;51.076;7.950;2024-02-23T09:46:27;94851.13;;;4.22;87.29
55032;BME280;40928;51.076;7.950;2024-02-23T09:48:54;94856.41;;;4.22;86.15
55032;BME280;40928;51.076;7.950;2024-02-23T09:51:20;94859.66;;;4.29;86.57
55032;BME280;40928;51.076;7.950;2024-02-23T09:53:49;94845.41;;;4.30;86.01
55032;BME280;40928;51.076;7.950;2024-02-23T09:56:15;94860.50;;;4.35;85.95
55032;BME280;40928;51.076;7.950;2024-02-23T09:58:43;94838.97;;;4.21;85.53
55032;BME280;40928;51.076;7.950;2024-02-23T10:01:10;94856.41;;;4.22;86.73
55032;BME280;40928;51.076;7.950;2024-02-23T10:03:37;94861.72;;;4.22;86.63
55032;BME280;40928;51.076;7.950;2024-02-23T10:06:04;94861.69;;;4.17;87.56
55032;BME280;40928;51.076;7.950;2024-02-23T10:08:30;94859.53;;;4.14;88.28
55032;BME280;40928;51.076;7.950;2024-02-23T10:10:56;94865.31;;;4.10;87.93
55032;BME280;40928;51.076;7.950;2024-02-23T10:13:23;94875.81;;;4.05;88.72
55032;BME280;40928;51.076;7.950;2024-02-23T10:15:52;94873.50;;;4.09;89.37
55032;BME280;40928;51.076;7.950;2024-02-23T10:18:19;94865.09;;;4.12;89.03
55032;BME280;40928;51.076;7.950;2024-02-23T10:20:45;94861.56;;;4.06;89.41
55032;BME280;40928;51.076;7.950;2024-02-23T10:23:11;94865.88;;;4.13;88.91
55032;BME280;40928;51.076;7.950;2024-02-23T10:25:37;94856.84;;;4.08;89.68
55032;BME280;40928;51.076;7.950;2024-02-23T10:28:06;94865.66;;;4.19;89.69
55032;BME280;40928;51.076;7.950;2024-02-23T10:30:33;94865.09;;;4.12;89.14
55032;BME280;40928;51.076;7.950;2024-02-23T10:32:59;94877.66;;;4.32;88.78
55032;BME280;40928;51.076;7.950;2024-02-23T10:35:25;94864.41;;;4.65;87.97
55032;BME280;40928;51.076;7.950;2024-02-23T10:37:53;94876.03;;;5.07;85.56
55032;BME280;40928;51.076;7.950;2024-02-23T10:40:19;94861.63;;;4.82;85.87
55032;BME280;40928;51.076;7.950;2024-02-23T10:42:46;94874.78;;;5.20;84.50
55032;BME280;40928;51.076;7.950;2024-02-23T10:45:17;94869.28;;;5.37;84.01
55032;BME280;40928;51.076;7.950;2024-02-23T10:47:43;94870.38;;;5.46;83.67
55032;BME280;40928;51.076;7.950;2024-02-23T10:50:09;94870.97;;;5.58;82.98
55032;BME280;40928;51.076;7.950;2024-02-23T10:52:35;94855.78;;;5.38;83.14
55032;BME280;40928;51.076;7.950;2024-02-23T10:55:02;94871.94;;;5.37;83.26
55032;BME280;40928;51.076;7.950;2024-02-23T10:57:34;94872.91;;;5.20;84.87
55032;BME280;40928;51.076;7.950;2024-02-23T11:00:01;94897.97;;;5.02;84.00
55032;BME280;40928;51.076;7.950;2024-02-23T11:02:28;94860.59;;;4.88;86.14
55032;BME280;40928;51.076;7.950;2024-02-23T11:04:57;94868.75;;;4.81;86.41
55032;BME280;40928;51.076;7.950;2024-02-23T11:07:24;94859.50;;;4.84;85.65
55032;BME280;40928;51.076;7.950;2024-02-23T11:10:02;94865.63;;;4.90;86.07
55032;BME280;40928;51.076;7.950;2024-02-23T11:12:29;94866.69;;;4.94;87.65
55032;BME280;40928;51.076;7.950;2024-02-23T11:14:59;94860.34;;;4.90;87.02
55032;BME280;40928;51.076;7.950;2024-02-23T11:17:32;94884.88;;;4.80;85.36
55032;BME280;40928;51.076;7.950;2024-02-23T11:19:58;94887.22;;;4.76;85.70
55032;BME280;40928;51.076;7.950;2024-02-23T11:22:25;94882.16;;;4.69;86.77
55032;BME280;40928;51.076;7.950;2024-02-23T11:24:51;94878.19;;;4.67;87.07
55032;BME280;40928;51.076;7.950;2024-02-23T11:27:17;94879.78;;;4.68;86.80
55032;BME280;40928;51.076;7.950;2024-02-23T11:29:45;94874.69;;;4.61;86.99
55032;BME280;40928;51.076;7.950;2024-02-23T11:32:16;94873.66;;;4.67;87.42
55032;BME280;40928;51.076;7.950;2024-02-23T11:34:54;94870.25;;;4.67;88.03
55032;BME280;40928;51.076;7.950;2024-02-23T11:37:20;94877.91;;;4.68;87.81
55032;BME280;40928;51.076;7.950;2024-02-23T11:39:46;94888.47;;;4.68;89.84
55032;BME280;40928;51.076;7.950;2024-02-23T11:42:12;94883.50;;;4.72;89.89
55032;BME280;40928;51.076;7.950;2024-02-23T11:44:37;94890.91;;;4.75;90.38
55032;BME280;40928;51.076;7.950;2024-02-23T11:47:03;94884.16;;;4.90;91.40
55032;BME280;40928;51.076;7.950;2024-02-23T11:49:29;94873.22;;;4.76;89.85
55032;BME280;40928;51.076;7.950;2024-02-23T11:51:55;94882.72;;;5.20;90.02
55032;BME280;40928;51.076;7.950;2024-02-23T11:54:22;94880.34;;;5.97;84.76
55032;BME280;40928;51.076;7.950;2024-02-23T11:56:51;94870.22;;;5.89;84.16
55032;BME280;40928;51.076;7.950;2024-02-23T11:59:19;94878.19;;;5.84;83.21
55032;BME280;40928;51.076;7.950;2024-02-23T12:01:46;94859.09;;;5.76;81.75
55032;BME280;40928;51.076;7.950;2024-02-23T12:04:13;94862.56;;;5.98;82.83
55032;BME280;40928;51.076;7.950;2024-02-23T12:06:40;94853.06;;;6.12;81.20
55032;BME280;40928;51.076;7.950;2024-02-23T12:09:06;94851.25;;;6.59;79.08
55032;BME280;40928;51.076;7.950;2024-02-23T12:11:31;94854.34;;;7.63;71.49
55032;BME280;40928;51.076;7.950;2024-02-23T12:13:57;94856.41;;;7.82;69.70
55032;BME280;40928;51.076;7.950;2024-02-23T12:16:23;94844.53;;;7.64;71.26
55032;BME280;40928;51.076;7.950;2024-02-23T12:18:54;94843.91;;;7.27;72.11
55032;BME280;40928;51.076;7.950;2024-02-23T12:21:23;94846.69;;;6.75;72.23
55032;BME280;40928;51.076;7.950;2024-02-23T12:23:50;94847.50;;;6.50;74.30
55032;BME280;40928;51.076;7.950;2024-02-23T12:26:17;94855.47;;;6.14;76.92
55032;BME280;40928;51.076;7.950;2024-02-23T12:28:43;94851.78;;;6.46;76.44
55032;BME280;40928;51.076;7.950;2024-02-23T12:31:10;94848.78;;;6.99;74.61
55032;BME280;40928;51.076;7.950;2024-02-23T12:33:37;94864.50;;;8.06;69.24
55032;BME280;40928;51.076;7.950;2024-02-23T12:36:06;94873.47;;;9.38;61.79
55032;BME280;40928;51.076;7.950;2024-02-23T12:38:32;94847.59;;;10.59;58.96
55032;BME280;40928;51.076;7.950;2024-02-23T12:40:59;94899.47;;;11.00;56.76
55032;BME280;40928;51.076;7.950;2024-02-23T12:43:25;94877.47;;;10.42;55.53
55032;BME280;40928;51.076;7.950;2024-02-23T12:45:54;94877.91;;;9.48;58.95
55032;BME280;40928;51.076;7.950;2024-02-23T12:48:20;94884.72;;;9.98;60.38
55032;BME280;40928;51.076;7.950;2024-02-23T12:50:47;94890.03;;;10.41;57.58
55032;BME280;40928;51.076;7.950;2024-02-23T12:56:03;94877.47;;;11.78;55.69
55032;BME280;40928;51.076;7.950;2024-02-23T12:58:30;94879.44;;;12.82;53.16
55032;BME280;40928;51.076;7.950;2024-02-23T13:00:56;94882.00;;;11.77;53.71
55032;BME280;40928;51.076;7.950;2024-02-23T13:03:24;94879.69;;;12.72;51.58